Time;durP1;ratioP1;P1;durP2;ratioP2;P2;SDS_P1;SDS_P2;PMS_P1;PMS_P2;Temp;Humidity;BMP_temperature;BMP_pressure;BME280_temperature;BME280_humidity;BME280_pressure;Samples;Min_cycle;Max_cycle;Signal;HPM_P1;HPM_P2
2023/10/27 00:01:08;;;;;;;3.85;1.70;;;10.40;99.90;;;9.82;100.00;95136.94;5059852;28;20044;-38
2023/10/27 00:03:35;;;;;;;7.85;1.70;;;10.30;99.90;;;9.82;100.00;95138.72;5066093;28;20520;-38
2023/10/27 00:06:00;;;;;;;3.90;1.85;;;10.30;99.90;;;9.79;100.00;95138.94;5069775;28;20035;-39
2023/10/27 00:08:26;;;;;;;3.88;1.40;;;10.30;99.90;;;9.78;100.00;95142.50;5065820;28;20085;-39
2023/10/27 00:10:53;;;;;;;6.95;1.77;;;10.30;99.90;;;9.74;100.00;95132.19;5060329;28;20063;-39
2023/10/27 00:13:19;;;;;;;4.88;1.50;;;10.30;99.90;;;9.75;100.00;95131.25;5066549;28;20153;-38
2023/10/27 00:15:45;;;;;;;3.95;1.40;;;10.30;99.90;;;9.72;100.00;95134.06;5064330;28;20471;-40
2023/10/27 00:18:11;;;;;;;3.03;1.40;;;10.20;99.90;;;9.72;100.00;95128.81;5064084;28;20043;-42
2023/10/27 00:20:37;;;;;;;5.07;1.60;;;10.20;99.90;;;9.70;100.00;95122.81;5065126;28;20032;-39
2023/10/27 00:23:03;;;;;;;6.82;1.63;;;10.30;99.90;;;9.61;100.00;95106.84;5060846;28;20232;-38
2023/10/27 00:25:29;;;;;;;4.00;1.55;;;10.30;99.90;;;9.66;100.00;95124.00;5060031;28;20499;-40
2023/10/27 00:27:54;;;;;;;7.47;1.70;;;10.30;99.90;;;9.63;100.00;95124.19;5064301;28;20024;-38
2023/10/27 00:30:20;;;;;;;3.30;1.13;;;10.30;99.90;;;9.64;100.00;95122.44;5063907;28;20047;-39
2023/10/27 00:32:47;;;;;;;4.55;1.40;;;10.30;99.90;;;9.60;100.00;95119.16;5065554;28;20044;-39
2023/10/27 00:35:12;;;;;;;4.63;1.50;;;10.30;99.90;;;9.62;100.00;95126.94;5062673;28;20428;-39
2023/10/27 00:37:40;;;;;;;4.75;1.50;;;10.30;99.90;;;9.60;100.00;95127.06;5045168;28;20127;-38
2023/10/27 00:40:07;;;;;;;5.80;1.58;;;10.30;99.90;;;9.53;100.00;95126.63;5061286;28;20024;-39
2023/10/27 00:42:33;;;;;;;2.47;1.20;;;10.30;99.90;;;9.52;100.00;95127.56;5062342;28;20051;-38
2023/10/27 00:44:59;;;;;;;4.30;1.48;;;10.20;99.90;;;9.51;100.00;95130.31;5060826;28;20028;-39
2023/10/27 00:47:25;;;;;;;5.80;1.38;;;10.20;99.90;;;9.48;100.00;95130.53;5061307;28;20101;-40
2023/10/27 00:49:52;;;;;;;9.63;1.50;;;10.00;99.90;;;9.42;100.00;95117.78;5045190;28;20462;-39
2023/10/27 00:52:20;;;;;;;3.42;1.40;;;10.00;99.90;;;9.45;100.00;95128.94;5045897;28;20565;-38
2023/10/27 00:54:47;;;;;;;2.88;1.48;;;10.00;99.90;;;9.44;100.00;95121.16;5065758;28;20032;-40
2023/10/27 00:57:15;;;;;;;2.90;1.38;;;10.00;99.90;;;9.44;100.00;95129.03;5061296;28;20115;-39
2023/10/27 00:59:41;;;;;;;3.35;1.30;;;10.10;99.90;;;9.42;100.00;95121.28;5053795;28;20028;-40
2023/10/27 01:02:07;;;;;;;2.42;1.08;;;10.20;99.90;;;9.42;100.00;95115.16;5061272;28;20024;-38
2023/10/27 01:04:33;;;;;;;3.88;1.10;;;10.10;99.90;;;9.42;100.00;95109.91;5066393;28;20085;-38
2023/10/27 01:06:59;;;;;;;6.03;1.33;;;10.20;99.90;;;9.40;100.00;95112.63;5070502;28;20054;-39
2023/10/27 01:09:24;;;;;;;3.85;1.42;;;10.20;99.90;;;9.40;100.00;95106.53;5057153;28;20111;-39
2023/10/27 01:11:51;;;;;;;7.20;1.40;;;10.20;99.90;;;9.38;100.00;95105.81;5068577;28;20127;-39
2023/10/27 01:14:17;;;;;;;4.15;1.35;;;10.10;99.90;;;9.32;100.00;95097.38;5052994;28;20438;-40
2023/10/27 01:16:43;;;;;;;4.97;1.20;;;10.00;99.90;;;9.18;100.00;95082.53;5072217;28;20036;-39
2023/10/27 01:19:09;;;;;;;3.70;1.20;;;10.10;99.90;;;9.33;100.00;95112.22;5067766;28;20035;-39
2023/10/27 01:21:34;;;;;;;3.53;1.00;;;10.00;99.90;;;9.32;100.00;95105.28;5070393;28;23993;-39
2023/10/27 01:24:02;;;;;;;2.47;0.93;;;10.00;99.90;;;9.31;100.00;95103.59;5070225;28;20558;-38
2023/10/27 01:26:28;;;;;;;1.83;1.00;;;10.00;99.90;;;9.29;100.00;95097.59;5074166;28;20304;-38
2023/10/27 01:28:54;;;;;;;3.55;1.00;;;10.00;99.90;;;9.21;100.00;95085.94;5066538;28;20070;-40
2023/10/27 01:31:19;;;;;;;3.97;0.90;;;10.10;99.90;;;9.26;100.00;95100.44;5072303;28;20383;-38
2023/10/27 01:33:45;;;;;;;2.22;0.70;;;10.00;99.90;;;9.26;100.00;95089.94;5072379;28;20024;-38
2023/10/27 01:36:11;;;;;;;2.58;1.15;;;9.90;99.90;;;9.18;100.00;95081.69;5069520;28;20111;-39
2023/10/27 01:38:36;;;;;;;4.10;1.02;;;10.00;99.90;;;9.25;100.00;95093.50;5071104;28;20577;-39
2023/10/27 01:41:02;;;;;;;3.47;1.00;;;10.00;99.90;;;9.22;100.00;95096.31;5069937;28;20028;-38
2023/10/27 01:43:28;;;;;;;4.25;1.15;;;9.80;99.90;;;9.11;100.00;95080.44;5072119;28;20126;-38
2023/10/27 01:45:54;;;;;;;2.45;0.98;;;9.90;99.90;;;9.17;100.00;95085.31;5068761;28;20407;-40
2023/10/27 01:48:19;;;;;;;1.23;0.75;;;10.00;99.90;;;9.17;100.00;95087.94;5063491;28;20081;-40
2023/10/27 01:50:45;;;;;;;2.03;0.90;;;9.90;99.90;;;9.16;100.00;95083.59;5071806;28;20036;-39
2023/10/27 01:53:11;;;;;;;2.17;0.98;;;10.00;99.90;;;9.15;100.00;95088.03;5074793;28;20024;-38
2023/10/27 01:55:36;;;;;;;2.58;1.00;;;9.90;99.90;;;9.20;100.00;95081.59;5075852;28;20055;-38
2023/10/27 01:58:02;;;;;;;3.75;1.20;;;9.90;99.90;;;9.22;100.00;95084.97;5056378;28;20028;-39
2023/10/27 02:00:28;;;;;;;2.17;0.95;;;9.80;99.90;;;9.20;100.00;95073.72;5069483;28;20629;-38
2023/10/27 02:02:54;;;;;;;2.95;1.15;;;10.00;99.90;;;9.25;100.00;95082.97;5066946;28;20036;-38
2023/10/27 02:05:19;;;;;;;2.03;0.90;;;9.80;99.90;;;9.26;100.00;95078.53;5068815;28;20035;-39
2023/10/27 02:07:45;;;;;;;1.63;0.98;;;10.00;99.90;;;9.25;100.00;95077.72;5071313;28;20032;-38
2023/10/27 02:10:11;;;;;;;3.55;1.30;;;10.00;99.90;;;9.21;100.00;95065.72;5072142;28;20032;-39
2023/10/27 02:12:36;;;;;;;2.63;1.10;;;9.90;99.90;;;9.27;100.00;95069.72;5052999;28;20036;-38
2023/10/27 02:15:02;;;;;;;2.22;1.00;;;9.90;99.90;;;9.25;100.00;95075.06;5068249;28;20068;-38
2023/10/27 02:17:28;;;;;;;1.92;1.05;;;10.00;99.90;;;9.24;100.00;95072.53;5053650;28;20123;-38
2023/10/27 02:19:55;;;;;;;3.38;0.95;;;10.00;99.90;;;9.22;100.00;95066.56;5075814;28;20085;-38
2023/10/27 02:22:21;;;;;;;6.90;1.48;;;10.00;99.90;;;9.24;100.00;95069.91;5069550;28;20035;-38
2023/10/27 02:24:47;;;;;;;4.18;1.20;;;10.00;99.90;;;9.20;100.00;95064.03;5071990;28;20036;-39
2023/10/27 02:27:13;;;;;;;2.95;1.02;;;9.90;99.90;;;9.17;100.00;95051.13;5068735;28;20027;-39
2023/10/27 02:29:39;;;;;;;1.75;1.08;;;9.90;99.90;;;9.26;100.00;95066.25;5076606;28;20067;-39
2023/10/27 02:32:05;;;;;;;2.33;1.02;;;10.00;99.90;;;9.20;100.00;95045.63;5069189;28;20028;-39
2023/10/27 02:34:30;;;;;;;3.25;1.20;;;10.00;99.90;;;9.26;100.00;95068.03;5071215;28;20040;-38
2023/10/27 02:36:56;;;;;;;2.03;1.02;;;10.00;99.90;;;9.22;100.00;95064.75;5065810;28;20035;-39
2023/10/27 02:39:22;;;;;;;3.05;1.15;;;10.00;99.90;;;9.24;100.00;95072.53;5062424;28;20400;-38
2023/10/27 02:41:48;;;;;;;3.50;1.20;;;10.00;99.90;;;9.20;100.00;95056.16;5062499;28;20031;-39
2023/10/27 02:44:13;;;;;;;4.53;1.20;;;9.80;99.90;;;9.22;100.00;95066.56;5064147;28;20476;-39
2023/10/27 02:47:16;;;;;;;3.25;1.25;;;10.00;99.90;;;8.92;100.00;95023.03;5068420;28;20028;-39
2023/10/27 02:49:42;;;;;;;;;;;9.90;99.90;;;9.16;100.00;95067.81;5036652;28;20040;-39
2023/10/27 02:52:08;;;;;;;1.88;1.25;;;9.80;99.90;;;9.16;100.00;95059.94;5067373;28;24209;-41
2023/10/27 02:54:34;;;;;;;4.43;1.25;;;9.80;99.90;;;9.15;100.00;95045.97;5066739;28;20562;-39
2023/10/27 02:56:59;;;;;;;2.47;0.93;;;9.80;99.90;;;9.17;100.00;95049.31;5069345;28;20028;-39
2023/10/27 02:59:25;;;;;;;2.30;1.02;;;9.90;99.90;;;9.16;100.00;95044.16;5069333;28;20074;-39
2023/10/27 03:01:52;;;;;;;2.28;1.10;;;9.80;99.90;;;9.21;100.00;95049.94;5066539;28;20035;-38
2023/10/27 03:04:19;;;;;;;2.10;1.10;;;9.90;99.90;;;9.08;100.00;95023.66;5071121;28;20035;-39
2023/10/27 03:06:44;;;;;;;4.05;1.10;;;9.90;99.90;;;9.11;100.00;95031.31;5067319;28;20067;-38
2023/10/27 03:09:10;;;;;;;1.75;1.00;;;9.90;99.90;;;9.19;100.00;95046.59;5070370;28;20070;-39
2023/10/27 03:11:36;;;;;;;2.50;1.20;;;9.80;99.90;;;9.17;100.00;95049.31;5073600;28;20032;-38
2023/10/27 03:14:01;;;;;;;4.30;1.15;;;10.00;99.90;;;9.20;100.00;95052.69;5070380;28;20036;-38
2023/10/27 03:16:27;;;;;;;2.20;1.00;;;9.90;99.90;;;9.18;100.00;95044.88;5061585;28;20451;-40
2023/10/27 03:18:55;;;;;;;2.33;0.98;;;9.90;99.90;;;9.05;100.00;95010.72;5069529;28;20032;-39
2023/10/27 03:21:21;;;;;;;1.70;0.90;;;9.80;99.90;;;9.19;100.00;95036.06;5066914;28;20039;-38
2023/10/27 03:23:48;;;;;;;2.78;1.17;;;9.80;99.90;;;9.17;100.00;95027.44;5070401;28;20055;-41
2023/10/27 03:26:14;;;;;;;3.00;1.15;;;9.90;99.90;;;9.20;100.00;95031.66;5065514;28;20403;-38
2023/10/27 03:28:41;;;;;;;3.28;1.15;;;9.80;99.90;;;9.13;100.00;95021.56;5064859;28;20093;-38
2023/10/27 03:31:08;;;;;;;3.17;1.15;;;9.80;99.90;;;9.19;100.00;95038.69;5067917;28;20128;-39
2023/10/27 03:33:34;;;;;;;4.72;1.20;;;9.90;99.90;;;9.18;100.00;95037.84;5074065;28;20020;-38
2023/10/27 03:35:59;;;;;;;2.50;1.10;;;9.90;99.90;;;9.17;100.00;95033.53;5067533;28;22202;-38
2023/10/27 03:38:25;;;;;;;4.63;0.95;;;9.90;99.90;;;9.19;100.00;95038.69;5068047;28;20036;-38
2023/10/27 03:40:53;;;;;;;2.42;1.23;;;9.90;99.90;;;9.17;100.00;95038.81;5070994;28;20067;-40
2023/10/27 03:43:19;;;;;;;2.97;1.10;;;9.90;99.90;;;9.22;100.00;95040.25;5070436;28;20036;-39
2023/10/27 03:45:45;;;;;;;2.72;1.10;;;9.90;99.90;;;9.17;100.00;95025.66;5066889;28;20050;-39
2023/10/27 03:48:10;;;;;;;1.92;1.10;;;9.90;99.90;;;9.18;100.00;95022.06;5070399;28;20042;-38
2023/10/27 03:50:36;;;;;;;1.50;1.05;;;9.90;99.90;;;9.22;100.00;95017.44;5065348;28;20036;-39
2023/10/27 03:53:03;;;;;;;2.08;0.88;;;9.90;99.90;;;9.22;100.00;95009.53;5062426;28;20492;-38
2023/10/27 03:55:29;;;;;;;3.28;1.00;;;9.90;99.90;;;9.18;100.00;95015.97;5071356;28;20031;-38
2023/10/27 03:57:55;;;;;;;3.10;1.20;;;9.90;99.90;;;9.16;100.00;95007.34;5064942;28;20033;-38
2023/10/27 04:00:21;;;;;;;3.55;1.13;;;9.80;99.90;;;9.16;100.00;95013.44;5063503;28;20047;-39
2023/10/27 04:02:46;;;;;;;3.30;1.02;;;9.80;99.90;;;9.15;100.00;95017.03;5070480;28;20044;-38
2023/10/27 04:05:13;;;;;;;2.55;1.10;;;9.80;99.90;;;9.10;100.00;95003.38;5071117;28;20468;-37
2023/10/27 04:07:38;;;;;;;3.90;1.33;;;9.90;99.90;;;9.12;100.00;95011.16;5066459;28;20036;-38
2023/10/27 04:10:04;;;;;;;2.42;1.08;;;9.80;99.90;;;9.11;100.00;95012.09;5063971;28;20089;-40
2023/10/27 04:12:30;;;;;;;2.40;0.85;;;9.80;99.90;;;9.07;100.00;95010.63;5066827;28;20314;-38
2023/10/27 04:14:56;;;;;;;3.58;0.90;;;9.80;99.90;;;9.10;100.00;95013.88;5068130;28;20035;-39
2023/10/27 04:17:21;;;;;;;2.15;1.23;;;9.70;99.90;;;9.08;100.00;95009.66;5064006;28;20628;-37
2023/10/27 04:19:47;;;;;;;4.10;1.27;;;9.80;99.90;;;9.07;100.00;95019.34;5052581;28;20036;-39
2023/10/27 04:22:14;;;;;;;2.80;1.23;;;9.80;99.90;;;9.05;100.00;95021.25;5067034;28;20400;-39
2023/10/27 04:24:40;;;;;;;3.28;1.02;;;9.80;99.90;;;9.07;100.00;95016.72;5066712;28;20032;-39
2023/10/27 04:27:05;;;;;;;2.55;1.25;;;9.80;99.90;;;9.05;100.00;95018.59;5066954;28;20027;-38
2023/10/27 04:29:31;;;;;;;1.83;0.85;;;9.80;99.90;;;9.06;100.00;95016.81;5064241;28;20040;-39
2023/10/27 04:31:57;;;;;;;1.88;1.15;;;9.70;99.90;;;9.06;100.00;95009.78;5060310;28;20040;-38
2023/10/27 04:34:22;;;;;;;1.95;0.90;;;9.70;99.90;;;9.04;100.00;95014.28;5062758;28;20036;-39
2023/10/27 04:36:49;;;;;;;1.83;1.10;;;9.80;99.90;;;9.04;100.00;95010.81;5066325;28;20035;-39
2023/10/27 04:39:14;;;;;;;1.58;0.80;;;9.70;99.90;;;9.00;100.00;94993.59;5059827;28;20020;-40
2023/10/27 04:41:40;;;;;;;3.72;1.20;;;9.70;99.90;;;9.10;100.00;95013.88;5066812;28;20032;-39
2023/10/27 04:44:06;;;;;;;1.95;0.98;;;9.80;99.90;;;9.12;100.00;95013.78;5069395;28;20038;-39
2023/10/27 04:46:31;;;;;;;1.63;1.00;;;9.80;99.90;;;9.14;100.00;95015.34;5070633;28;20123;-39
2023/10/27 04:48:57;;;;;;;2.17;0.95;;;9.80;99.90;;;9.16;100.00;95025.75;5058560;28;20032;-39
2023/10/27 04:51:24;;;;;;;5.97;1.15;;;9.80;99.90;;;9.16;100.00;95031.84;5051953;28;20043;-39
2023/10/27 04:53:50;;;;;;;1.48;0.80;;;9.80;99.90;;;9.17;100.00;95030.09;5052889;28;20039;-38
2023/10/27 04:56:16;;;;;;;1.20;0.75;;;9.80;99.90;;;9.17;100.00;95023.03;5067837;28;20044;-41
2023/10/27 04:58:44;;;;;;;3.83;0.90;;;9.80;99.90;;;9.18;100.00;95014.16;5067112;28;20454;-39
2023/10/27 05:01:11;;;;;;;3.75;1.00;;;9.90;99.90;;;9.17;100.00;95016.94;5059929;28;20039;-40
2023/10/27 05:03:37;;;;;;;3.60;1.00;;;9.80;99.90;;;9.15;100.00;95010.91;5065427;28;20101;-39
2023/10/27 05:06:10;;;;;;;3.17;0.77;;;9.90;99.90;;;9.13;100.00;95008.41;5033533;28;20044;-38
2023/10/27 05:08:36;;;;;;;2.17;0.77;;;9.90;99.90;;;9.04;100.00;95001.13;5069238;28;20043;-39
2023/10/27 05:11:01;;;;;;;1.23;0.70;;;9.90;99.90;;;9.13;100.00;95020.69;5061437;28;20037;-39
2023/10/27 05:13:27;;;;;;;2.40;0.70;;;9.90;99.90;;;9.12;100.00;95024.28;5061653;28;20644;-38
2023/10/27 05:15:54;;;;;;;1.58;0.60;;;9.90;99.90;;;9.14;100.00;95038.16;5057470;28;20752;-39
2023/10/27 05:18:20;;;;;;;1.85;0.70;;;9.90;99.90;;;9.19;100.00;95041.34;5062024;28;20056;-40
2023/10/27 05:20:45;;;;;;;2.40;0.80;;;9.90;99.90;;;9.17;100.00;95043.22;5056915;28;20050;-39
2023/10/27 05:23:11;;;;;;;2.35;0.80;;;9.90;99.90;;;9.13;100.00;95042.59;5063088;28;20459;-40
2023/10/27 05:25:37;;;;;;;2.10;0.95;;;9.90;99.90;;;9.11;100.00;95019.97;5066562;28;20122;-40
2023/10/27 05:28:03;;;;;;;1.67;0.93;;;9.90;99.90;;;9.16;100.00;95041.53;5070374;28;20028;-39
2023/10/27 05:30:29;;;;;;;1.85;0.80;;;9.90;99.90;;;9.16;100.00;95033.66;5069062;28;20123;-40
2023/10/27 05:32:55;;;;;;;1.50;0.75;;;9.80;99.90;;;9.18;100.00;95040.47;5070621;28;20053;-39
2023/10/27 05:35:21;;;;;;;2.38;1.00;;;9.90;99.90;;;9.17;100.00;95041.44;5070060;28;20522;-39
2023/10/27 05:37:46;;;;;;;3.38;0.77;;;9.80;99.90;;;9.17;100.00;95043.22;5065411;28;20028;-39
2023/10/27 05:40:12;;;;;;;3.55;0.93;;;9.90;99.90;;;9.17;100.00;95038.81;5068988;28;20388;-38
2023/10/27 05:42:38;;;;;;;2.25;0.88;;;9.80;99.90;;;9.21;100.00;95051.75;5071088;28;20039;-41
2023/10/27 05:45:05;;;;;;;2.65;0.88;;;9.90;99.90;;;9.23;100.00;95052.47;5070822;28;20032;-40
2023/10/27 05:47:30;;;;;;;3.05;0.93;;;9.90;99.90;;;9.26;100.00;95058.38;5071884;28;20043;-40
2023/10/27 05:49:57;;;;;;;2.72;0.90;;;9.90;99.90;;;9.29;100.00;95066.03;5073709;28;20035;-41
2023/10/27 05:52:22;;;;;;;1.92;0.98;;;9.90;99.90;;;9.32;100.00;95062.34;5054463;28;20500;-40
2023/10/27 05:54:48;;;;;;;1.02;0.80;;;9.90;99.90;;;9.29;100.00;95057.31;5064777;28;20466;-38
2023/10/27 05:57:14;;;;;;;1.58;1.00;;;10.00;99.90;;;9.30;100.00;95069.50;5059929;28;20024;-38
2023/10/27 05:59:40;;;;;;;1.27;0.70;;;10.00;99.90;;;9.29;100.00;95057.31;5066345;28;20089;-39
2023/10/27 06:02:06;;;;;;;2.35;0.90;;;9.90;99.90;;;9.26;100.00;95076.78;5073598;28;20438;-39
2023/10/27 06:04:34;;;;;;;2.05;0.93;;;9.90;99.90;;;9.22;100.00;95077.06;5055153;28;20031;-39
2023/10/27 06:07:00;;;;;;;1.63;0.77;;;9.90;99.90;;;9.25;100.00;95085.59;5069120;28;20025;-39
2023/10/27 06:09:29;;;;;;;2.95;0.88;;;9.90;99.90;;;9.23;100.00;95087.50;5048259;28;20042;-39
2023/10/27 06:11:55;;;;;;;2.70;0.88;;;9.90;99.90;;;9.11;100.00;95072.56;5069499;28;20047;-38
2023/10/27 06:14:21;;;;;;;2.42;0.75;;;9.90;99.90;;;9.21;100.00;95088.56;5071536;28;20437;-39
2023/10/27 06:16:46;;;;;;;2.80;0.77;;;9.90;99.90;;;9.19;100.00;95093.91;5066813;28;20036;-38
2023/10/27 06:19:12;;;;;;;2.83;0.90;;;9.90;99.90;;;9.23;100.00;95105.91;5070137;28;20500;-38
2023/10/27 06:21:38;;;;;;;2.15;0.80;;;9.90;99.90;;;9.18;100.00;95108.84;5074151;28;20020;-39
2023/10/27 06:24:04;;;;;;;1.70;0.90;;;9.90;99.90;;;9.23;100.00;95111.16;5071299;28;20028;-39
2023/10/27 06:26:30;;;;;;;2.78;1.00;;;9.90;99.90;;;9.25;100.00;95122.41;5066747;28;20032;-39
2023/10/27 06:28:55;;;;;;;2.10;1.00;;;9.90;99.90;;;9.24;100.00;95122.50;5065205;28;20047;-39
2023/10/27 06:31:21;;;;;;;4.25;1.00;;;9.90;99.90;;;9.23;100.00;95134.00;5048775;28;20079;-39
2023/10/27 06:33:47;;;;;;;1.80;0.98;;;9.90;99.90;;;9.22;100.00;95130.50;5062502;28;20024;-39
2023/10/27 06:36:13;;;;;;;3.65;1.35;;;9.90;99.90;;;9.23;100.00;95132.19;5070277;28;20036;-39
2023/10/27 06:38:38;;;;;;;3.15;1.02;;;9.90;99.90;;;9.25;100.00;95138.19;5072062;28;20066;-40
2023/10/27 06:41:04;;;;;;;2.97;1.23;;;9.90;99.90;;;9.24;100.00;95135.66;5067281;28;20028;-39
2023/10/27 06:43:30;;;;;;;1.60;1.23;;;9.90;99.90;;;9.26;100.00;95137.25;5066600;28;20511;-38
2023/10/27 06:45:56;;;;;;;4.45;0.90;;;10.00;99.90;;;9.29;100.00;95142.28;5053231;28;20044;-40
2023/10/27 06:48:21;;;;;;;2.47;1.08;;;10.00;99.90;;;9.29;100.00;95139.66;5064789;28;20053;-39
2023/10/27 06:50:47;;;;;;;1.27;1.00;;;10.00;99.90;;;9.41;100.00;95145.88;5062744;28;20480;-39
2023/10/27 06:53:13;;;;;;;1.60;1.02;;;10.10;99.90;;;9.43;100.00;95153.69;5063504;28;20032;-40
2023/10/27 06:55:39;;;;;;;1.30;0.95;;;10.10;99.90;;;9.45;100.00;95147.34;5066495;28;20031;-39
2023/10/27 06:58:04;;;;;;;2.03;1.20;;;10.10;99.90;;;9.48;100.00;95159.47;5066999;28;20035;-39
2023/10/27 07:00:31;;;;;;;1.70;0.95;;;10.10;99.90;;;9.51;100.00;95153.97;5042775;28;20735;-40
2023/10/27 07:02:57;;;;;;;0.73;0.60;;;10.10;99.90;;;9.48;100.00;95136.63;5056339;28;20794;-40
2023/10/27 07:05:23;;;;;;;1.70;1.00;;;10.20;99.90;;;9.64;100.00;95151.38;5063562;28;20043;-39
2023/10/27 07:07:49;;;;;;;1.83;1.10;;;10.20;99.90;;;9.66;100.00;95160.84;5057749;28;20035;-40
2023/10/27 07:10:16;;;;;;;2.05;0.90;;;10.40;99.90;;;9.65;100.00;95151.25;5059494;28;20642;-39
2023/10/27 07:12:43;;;;;;;2.13;1.00;;;10.30;99.90;;;9.69;100.00;95152.72;5060165;28;20040;-39
2023/10/27 07:15:09;;;;;;;1.17;0.80;;;10.40;99.90;;;9.80;100.00;95167.78;5060000;28;20129;-39
2023/10/27 07:17:35;;;;;;;3.92;0.90;;;10.40;99.90;;;9.87;100.00;95173.44;5061652;28;20035;-39
2023/10/27 07:20:01;;;;;;;1.52;0.70;;;10.50;99.90;;;9.93;100.00;95184.38;5045420;28;20347;-39
2023/10/27 07:22:27;;;;;;;1.55;0.98;;;10.60;99.90;;;9.97;100.00;95173.66;5057504;28;20542;-40
2023/10/27 07:24:52;;;;;;;3.53;0.93;;;10.60;99.90;;;9.85;100.00;95159.53;5063014;28;20730;-39
2023/10/27 07:27:18;;;;;;;1.33;1.05;;;10.60;99.90;;;9.97;100.00;95182.38;5067458;28;20055;-40
2023/10/27 07:29:44;;;;;;;3.22;0.70;;;10.70;99.90;;;9.96;100.00;95175.47;5065796;28;20093;-39
2023/10/27 07:32:09;;;;;;;1.52;0.50;;;10.70;99.90;;;10.02;100.00;95177.66;5061061;28;20341;-39
2023/10/27 07:34:35;;;;;;;0.52;0.52;;;10.70;99.90;;;10.02;100.00;95182.06;5047798;28;20374;-39
2023/10/27 07:37:04;;;;;;;1.23;0.70;;;10.70;99.90;;;10.00;100.00;95168.19;5036144;28;20032;-39
2023/10/27 07:39:30;;;;;;;1.42;0.70;;;10.80;99.90;;;9.99;100.00;95172.59;5061514;28;20345;-39
2023/10/27 07:41:56;;;;;;;3.65;0.70;;;10.70;99.90;;;10.12;100.00;95188.34;5047036;28;20024;-40
2023/10/27 07:44:22;;;;;;;1.13;0.70;;;10.80;99.90;;;10.17;100.00;95185.41;5066109;28;20039;-39
2023/10/27 07:46:47;;;;;;;1.20;0.60;;;10.90;99.90;;;10.25;100.00;95189.19;5059434;28;20086;-39
2023/10/27 07:49:13;;;;;;;1.10;0.60;;;10.90;99.90;;;10.32;100.00;95192.28;5044514;28;20074;-39
2023/10/27 07:51:39;;;;;;;1.40;1.00;;;11.00;99.90;;;10.41;100.00;95202.16;5062100;28;20032;-38
2023/10/27 07:54:04;;;;;;;0.90;0.60;;;11.10;99.90;;;10.39;100.00;95196.16;5065251;28;20043;-40
2023/10/27 07:56:32;;;;;;;0.90;0.60;;;11.20;99.90;;;10.51;100.00;95197.06;5060165;28;20442;-39
2023/10/27 07:58:58;;;;;;;1.15;0.70;;;11.20;99.90;;;10.55;100.00;95200.31;5065032;28;20036;-39
2023/10/27 08:01:24;;;;;;;3.03;0.80;;;11.20;99.90;;;10.56;100.00;95208.09;5065305;28;20028;-39
2023/10/27 08:03:50;;;;;;;1.83;0.68;;;11.30;99.90;;;10.57;100.00;95217.72;5067621;28;20035;-39
2023/10/27 08:06:16;;;;;;;1.33;0.50;;;11.20;99.90;;;10.59;100.00;95207.06;5064111;28;20561;-40
2023/10/27 08:08:42;;;;;;;1.95;0.40;;;11.30;99.90;;;10.64;100.00;95218.97;5063450;28;20472;-40
2023/10/27 08:11:16;;;;;;;0.93;0.40;;;11.40;99.90;;;10.69;100.00;95216.84;5064408;28;20170;-40
2023/10/27 08:13:42;;;;;;;0.88;0.50;;;11.40;99.90;;;10.78;100.00;95239.03;5062068;28;20794;-40
2023/10/27 08:16:08;;;;;;;0.85;0.40;;;11.50;99.90;;;10.90;100.00;95245.22;5043713;28;20032;-40
2023/10/27 08:18:33;;;;;;;0.93;0.40;;;11.60;99.90;;;10.96;100.00;95246.56;5057724;28;20993;-39
2023/10/27 08:20:59;;;;;;;0.95;0.80;;;11.60;99.90;;;10.98;100.00;95250.78;5059425;28;20443;-39
2023/10/27 08:23:26;;;;;;;0.50;0.40;;;11.70;99.90;;;10.99;100.00;95247.19;5068953;28;20189;-39
2023/10/27 08:25:52;;;;;;;0.45;0.40;;;11.70;99.90;;;11.04;100.00;95260.88;5064106;28;20032;-39
2023/10/27 08:28:21;;;;;;;0.30;0.30;;;11.80;99.90;;;10.98;100.00;95260.47;5062968;28;20060;-39
2023/10/27 08:30:48;;;;;;;0.38;0.30;;;11.80;99.90;;;11.04;100.00;95281.16;5067658;28;20046;-40
2023/10/27 08:33:16;;;;;;;0.32;0.30;;;11.80;99.90;;;10.93;100.00;95273.16;5057271;28;20480;-40
2023/10/27 08:35:42;;;;;;;3.15;0.55;;;11.70;99.90;;;10.95;100.00;95292.38;5064637;28;20192;-38
2023/10/27 08:38:08;;;;;;;1.08;0.43;;;11.70;99.90;;;10.93;100.00;95289.84;5060983;28;20028;-40
2023/10/27 08:40:35;;;;;;;1.88;0.47;;;11.60;99.90;;;10.86;100.00;95297.34;5058181;28;20611;-39
2023/10/27 08:43:03;;;;;;;1.42;0.30;;;11.60;99.90;;;10.79;100.00;95296.09;5057158;28;20109;-39
2023/10/27 08:45:30;;;;;;;0.63;0.50;;;11.50;99.90;;;10.76;100.00;95308.66;5061661;28;20070;-39
2023/10/27 08:47:56;;;;;;;2.30;0.30;;;11.40;99.90;;;10.61;100.00;95303.50;5058693;28;20086;-39
2023/10/27 08:50:22;;;;;;;0.93;0.40;;;11.40;99.90;;;10.58;100.00;95306.34;5039647;28;20897;-39
2023/10/27 08:52:48;;;;;;;0.75;0.50;;;11.30;99.90;;;10.44;100.00;95293.31;5063558;28;20179;-39
2023/10/27 08:55:14;;;;;;;1.00;0.50;;;11.30;99.90;;;10.57;100.00;95299.41;5069839;28;20411;-39
2023/10/27 08:57:40;;;;;;;2.78;0.57;;;11.30;99.90;;;10.61;100.00;95305.31;5074330;28;20040;-41
2023/10/27 09:00:07;;;;;;;1.30;0.60;;;11.40;99.90;;;10.65;100.00;95306.78;5071566;28;20484;-40
2023/10/27 09:02:35;;;;;;;2.00;0.65;;;11.30;99.90;;;10.64;100.00;95299.81;5071804;28;20024;-42
2023/10/27 09:05:06;;;;;;;1.25;0.50;;;11.40;99.90;;;10.65;100.00;95301.50;5065936;28;21000;-39
2023/10/27 09:07:33;;;;;;;2.22;0.52;;;11.40;99.90;;;10.64;100.00;95305.06;5070643;28;20078;-39
2023/10/27 09:10:00;;;;;;;0.52;0.40;;;11.30;99.90;;;10.69;100.00;95309.09;5073356;28;20062;-38
2023/10/27 09:12:29;;;;;;;3.83;0.60;;;11.40;99.90;;;10.74;100.00;95313.19;5070555;28;20110;-38
2023/10/27 09:15:09;;;;;;;0.45;0.45;;;11.40;99.90;;;10.76;100.00;95317.38;5067331;28;20031;-40
2023/10/27 09:17:58;;;;;;;3.97;0.52;;;11.40;99.90;;;10.89;100.00;95312.06;5055402;28;20051;-39
2023/10/27 09:20:25;;;;;;;2.92;0.22;;;11.60;99.90;;;11.00;100.00;95319.22;5073247;28;20032;-38
2023/10/27 09:23:04;;;;;;;1.85;0.57;;;11.60;99.90;;;11.08;100.00;95332.72;5066930;28;20035;-38
2023/10/27 09:25:34;;;;;;;0.38;0.35;;;11.80;99.90;;;11.15;100.00;95328.69;5069221;28;20360;-39
2023/10/27 09:28:08;;;;;;;1.13;0.70;;;11.80;99.90;;;11.25;100.00;95321.78;5061893;28;20032;-39
2023/10/27 09:30:39;;;;;;;0.73;0.60;;;11.90;99.90;;;11.35;100.00;95334.31;5077417;28;20025;-39
2023/10/27 09:33:18;;;;;;;0.30;0.30;;;12.00;99.90;;;11.35;100.00;95337.78;5058820;28;20388;-39
2023/10/27 09:35:48;;;;;;;0.65;0.30;;;12.00;99.90;;;11.34;100.00;95346.66;5062220;28;20070;-40
2023/10/27 09:38:15;;;;;;;1.08;0.50;;;12.00;99.90;;;11.35;100.00;95358.06;5052647;28;20598;-40
2023/10/27 09:40:43;;;;;;;0.70;0.32;;;12.00;99.90;;;11.27;100.00;95363.91;5063424;28;20032;-40
2023/10/27 09:43:21;;;;;;;1.20;0.43;;;11.90;99.90;;;11.17;100.00;95352.31;5067378;28;20666;-41
2023/10/27 09:45:57;;;;;;;1.05;0.40;;;11.90;99.90;;;11.12;100.00;95360.53;5061424;28;20035;-39
2023/10/27 09:48:25;;;;;;;2.35;0.50;;;11.80;99.90;;;11.04;100.00;95370.81;5067809;28;20027;-39
2023/10/27 09:51:01;;;;;;;0.38;0.30;;;11.70;99.90;;;11.03;100.00;95369.94;5073872;28;20043;-39
2023/10/27 09:53:28;;;;;;;0.50;0.40;;;11.60;99.90;;;10.94;100.00;95359.22;5055345;28;20412;-39
2023/10/27 09:55:57;;;;;;;0.75;0.43;;;11.70;99.90;;;11.04;100.00;95376.09;5065050;28;20495;-39
2023/10/27 09:58:26;;;;;;;0.55;0.50;;;11.70;99.90;;;10.99;100.00;95359.75;5068096;28;20043;-39
2023/10/27 10:00:52;;;;;;;1.58;0.60;;;11.70;99.90;;;11.06;100.00;95382.09;5068842;28;20517;-39
2023/10/27 10:03:22;;;;;;;1.52;0.65;;;11.70;99.90;;;11.03;100.00;95384.94;5038505;28;20043;-39
2023/10/27 10:06:11;;;;;;;3.30;0.50;;;11.70;99.90;;;10.82;100.00;95372.34;5063390;28;20339;-39
2023/10/27 10:08:38;;;;;;;1.50;0.70;;;11.60;99.90;;;10.93;100.00;95394.44;5050293;28;20395;-41
2023/10/27 10:11:15;;;;;;;5.63;0.60;;;11.60;99.90;;;10.96;100.00;95396.88;5062693;28;20043;-38
2023/10/27 10:13:41;;;;;;;1.23;0.65;;;11.60;99.90;;;11.06;100.00;95397.94;5068406;28;20115;-39
2023/10/27 10:16:08;;;;;;;8.32;1.52;;;11.70;99.90;;;11.12;100.00;95402.75;5048895;28;20035;-39
2023/10/27 10:18:34;;;;;;;8.57;1.50;;;11.80;99.90;;;11.18;100.00;95391.78;5064395;28;20487;-39